Terminal Aerodrome Forecast
Issued by NWS

Home | Current Version | Previous Version | Text Only | Print | Product List | Glossary On
Versions: 1 2 3 4 5 6 7 8 9 10 11 12 13 14 15 16 17 18 19
000
FTUS43 KGRR 292027 AAA
TAFMKG
TAF AMD
KMKG 292027Z 2920/3018 07008KT P6SM VCSH OVC025
      TEMPO 2920/2923 2SM -RA BR
     FM300200 VRB03KT 4SM BR OVC015
     FM300600 VRB03KT 1/2SM FG OVC005
     FM301400 15005KT 4SM BR SCT005 OVC015
     FM301600 20006KT P6SM BKN025=

USA.gov is the U.S. government's official web portal to all federal, state and local government web resources and services.